Time;durP1;ratioP1;P1;durP2;ratioP2;P2;SDS_P1;SDS_P2;PMS_P1;PMS_P2;Temp;Humidity;BMP_temperature;BMP_pressure;BME280_temperature;BME280_humidity;BME280_pressure;Samples;Min_cycle;Max_cycle;Signal;HPM_P1;HPM_P2
2022/05/12 00:02:05;;;;;;;;;;;;;;;13.71;100.00;151097.86;1735482;82;20186;-59
2022/05/12 00:04:33;;;;;;;;;;;;;;;13.71;100.00;151097.86;1735476;82;20168;-59
2022/05/12 00:06:59;;;;;;;;;;;;;;;13.69;100.00;151093.94;1734941;82;21641;-60
2022/05/12 00:09:27;;;;;;;;;;;;;;;13.72;100.00;151101.73;1735090;82;20136;-59
2022/05/12 00:11:53;;;;;;;;;;;;;;;13.68;100.00;151091.34;1734984;82;20558;-59
2022/05/12 00:14:20;;;;;;;;;;;;;;;13.70;100.00;151096.53;1735436;82;20356;-59
2022/05/12 00:16:47;;;;;;;;;;;;;;;13.70;100.00;151096.53;1734673;82;20560;-59
2022/05/12 00:19:14;;;;;;;;;;;;;;;13.70;100.00;151096.53;1735258;81;21203;-60
2022/05/12 00:21:41;;;;;;;;;;;;;;;13.70;100.00;151095.22;1735378;82;20187;-60
2022/05/12 00:24:08;;;;;;;;;;;;;;;13.69;100.00;151093.94;1743838;82;20289;-59
2022/05/12 00:26:36;;;;;;;;;;;;;;;13.69;100.00;151093.94;1744034;82;20424;-59
2022/05/12 00:29:05;;;;;;;;;;;;;;;13.66;100.00;151086.14;1744278;82;20178;-57
2022/05/12 00:31:33;;;;;;;;;;;;;;;13.67;100.00;151087.41;1743715;81;21256;-58
2022/05/12 00:34:00;;;;;;;;;;;;;;;13.68;100.00;151090.02;1734374;82;20174;-58
2022/05/12 00:36:27;;;;;;;;;;;;;;;13.66;100.00;151086.14;1728948;83;20182;-58
2022/05/12 00:38:54;;;;;;;;;;;;;;;13.65;100.00;151083.55;1729174;83;21685;-61
2022/05/12 00:41:21;;;;;;;;;;;;;;;13.65;100.00;151083.55;1729063;82;20478;-58
2022/05/12 00:43:52;;;;;;;;;;;;;;;13.64;100.00;151080.94;1728522;81;21221;-60
2022/05/12 00:46:21;;;;;;;;;;;;;;;13.63;100.00;151077.03;1728962;81;20411;-58
2022/05/12 00:48:49;;;;;;;;;;;;;;;13.63;100.00;151078.34;1728537;83;20230;-58
2022/05/12 00:51:22;;;;;;;;;;;;;;;13.64;100.00;151080.94;1728970;83;20130;-58
2022/05/12 00:53:50;;;;;;;;;;;;;;;13.64;100.00;151080.94;1728571;83;20199;-58
2022/05/12 00:56:19;;;;;;;;;;;;;;;13.71;100.00;151099.14;1728964;82;21241;-59
2022/05/12 00:58:45;;;;;;;;;;;;;;;13.71;100.00;151097.86;1728859;82;20133;-59
2022/05/12 01:01:12;;;;;;;;;;;;;;;13.72;100.00;151101.73;1728499;81;20197;-59
2022/05/12 01:03:40;;;;;;;;;;;;;;;13.71;100.00;151099.14;1729100;83;20122;-59
2022/05/12 01:06:07;;;;;;;;;;;;;;;13.69;100.00;151092.61;1728247;82;20206;-59
2022/05/12 01:08:34;;;;;;;;;;;;;;;13.69;100.00;151093.94;1727982;82;20524;-59
2022/05/12 01:11:05;;;;;;;;;;;;;;;13.74;100.00;151106.94;1727810;82;21156;-59
2022/05/12 01:13:32;;;;;;;;;;;;;;;13.74;100.00;151105.66;1728237;82;20139;-58
2022/05/12 01:16:01;;;;;;;;;;;;;;;13.77;100.00;151113.45;1728659;82;20630;-58
2022/05/12 01:18:29;;;;;;;;;;;;;;;13.75;100.00;151108.25;1728901;83;20436;-59
2022/05/12 01:20:56;;;;;;;;;;;;;;;13.72;100.00;151101.73;1728749;83;21871;-58
2022/05/12 01:23:26;;;;;;;;;;;;;;;13.73;100.00;151103.06;1738719;82;20258;-59
2022/05/12 01:25:57;;;;;;;;;;;;;;;13.73;100.00;151104.34;1745492;82;20209;-59
2022/05/12 01:28:25;;;;;;;;;;;;;;;13.74;100.00;151106.94;1746256;82;20360;-59
2022/05/12 01:30:51;;;;;;;;;;;;;;;13.72;100.00;151100.45;1745927;82;20178;-59
2022/05/12 01:33:18;;;;;;;;;;;;;;;13.69;100.00;151093.94;1748788;81;21873;-59
2022/05/12 01:35:45;;;;;;;;;;;;;;;13.66;100.00;151086.14;1754461;81;20181;-59
2022/05/12 01:38:13;;;;;;;;;;;;;;;13.68;100.00;151090.02;1754219;80;20182;-59
2022/05/12 01:40:40;;;;;;;;;;;;;;;13.66;100.00;151086.14;1754170;81;20131;-59
2022/05/12 01:43:07;;;;;;;;;;;;;;;13.66;100.00;151086.14;1754308;81;20190;-59
2022/05/12 01:45:34;;;;;;;;;;;;;;;13.65;100.00;151082.22;1754256;81;21435;-60
2022/05/12 01:48:01;;;;;;;;;;;;;;;13.66;100.00;151086.14;1754117;81;20205;-59
2022/05/12 01:50:28;;;;;;;;;;;;;;;13.61;100.00;151073.14;1754588;80;20455;-61
2022/05/12 01:52:55;;;;;;;;;;;;;;;13.60;100.00;151070.55;1753718;81;20648;-60
2022/05/12 01:55:26;;;;;;;;;;;;;;;13.56;100.00;151060.11;1754052;81;20150;-60
2022/05/12 01:57:51;;;;;;;;;;;;;;;13.57;100.00;150779.92;1753742;81;21253;-59
2022/05/12 02:00:21;;;;;;;;;;;;;;;13.56;100.00;149318.70;1753928;81;20205;-59
2022/05/12 02:02:49;;;;;;;;;;;;;;;13.57;100.00;135361.67;1754043;81;20245;-60
2022/05/12 02:05:16;;;;;;;;;;;;;;;13.56;100.00;137971.78;1753961;80;20241;-60
2022/05/12 02:07:48;;;;;;;;;;;;;;;13.52;100.00;138484.97;1754390;81;20153;-60
2022/05/12 02:10:17;;;;;;;;;;;;;;;13.49;100.00;137257.19;1754322;81;21137;-61
2022/05/12 02:12:44;;;;;;;;;;;;;;;13.49;100.00;128733.09;1753416;80;20197;-61
2022/05/12 02:15:12;;;;;;;;;;;;;;;13.45;100.00;134289.42;1753848;81;20228;-60
2022/05/12 02:17:40;;;;;;;;;;;;;;;13.42;100.00;134631.64;1754091;80;20135;-60
2022/05/12 02:20:08;;;;;;;;;;;;;;;13.35;100.00;143848.33;1753620;81;20249;-60
2022/05/12 02:22:35;;;;;;;;;;;;;;;13.31;100.00;133214.44;1751446;81;21227;-61
2022/05/12 02:25:04;;;;;;;;;;;;;;;13.30;100.00;127651.05;1735316;82;20634;-60
2022/05/12 02:27:30;;;;;;;;;;;;;;;13.27;100.00;119666.09;1735597;82;20471;-60
2022/05/12 02:29:57;;;;;;;;;;;;;;;13.29;100.00;113784.58;1734848;81;20637;-60
2022/05/12 02:32:27;;;;;;;;;;;;;;;13.28;100.00;110843.53;1735481;82;20451;-59
2022/05/12 02:34:54;;;;;;;;;;;;;;;13.27;100.00;109286.66;1744762;82;21171;-60
2022/05/12 02:37:21;;;;;;;;;;;;;;;13.24;100.00;106863.67;1744920;81;20182;-60
2022/05/12 02:39:48;;;;;;;;;;;;;;;13.24;100.00;103068.40;1745137;82;20179;-61
2022/05/12 02:42:15;;;;;;;;;;;;;;;13.23;100.00;101171.41;1744934;82;20218;-61
2022/05/12 02:44:42;;;;;;;;;;;;;;;13.21;100.00;102373.47;1744126;81;20132;-60
2022/05/12 02:47:09;;;;;;;;;;;;;;;13.18;100.00;103749.16;1744080;82;21860;-61
2022/05/12 02:49:36;;;;;;;;;;;;;;;13.20;100.00;99271.21;1744254;81;20156;-60
2022/05/12 02:52:06;;;;;;;;;;;;;;;13.21;100.00;97894.58;1744118;82;20232;-58
2022/05/12 02:54:34;;;;;;;;;;;;;;;13.26;100.00;92913.77;1744397;81;20202;-60
2022/05/12 02:57:01;;;;;;;;;;;;;;;13.29;100.00;95670.58;1744429;82;20174;-61
2022/05/12 02:59:28;;;;;;;;;;;;;;;13.36;100.00;88633.83;1744343;81;21141;-60
2022/05/12 03:01:55;;;;;;;;;;;;;;;13.43;100.00;88988.22;1743844;81;20214;-60
2022/05/12 03:04:22;;;;;;;;;;;;;;;13.52;100.00;87454.77;1744561;81;20202;-60
2022/05/12 03:06:49;;;;;;;;;;;;;;;13.57;100.00;93650.36;1744055;82;20537;-61
2022/05/12 03:09:16;;;;;;;;;;;;;;;13.63;100.00;94691.83;1744496;82;20266;-60
2022/05/12 03:11:43;;;;;;;;;;;;;;;13.69;100.00;98491.41;1744201;82;21121;-59
2022/05/12 03:14:09;;;;;;;;;;;;;;;13.75;100.00;101432.55;1744199;82;20590;-59
2022/05/12 03:16:36;;;;;;;;;;;;;;;13.80;100.00;106619.08;1744672;82;20147;-61
2022/05/12 03:19:03;;;;;;;;;;;;;;;13.85;100.00;113198.49;1744421;81;20258;-65
2022/05/12 03:21:30;;;;;;;;;;;;;;;13.93;100.00;118931.41;1745005;82;20155;-63
2022/05/12 03:23:57;;;;;;;;;;;;;;;13.99;100.00;125018.27;1743115;82;21243;-60
2022/05/12 03:26:26;;;;;;;;;;;;;;;14.06;100.00;131464.97;1742809;82;20151;-60
2022/05/12 03:28:53;;;;;;;;;;;;;;;14.15;100.00;137757.37;1742435;82;20210;-61
2022/05/12 03:31:19;;;;;;;;;;;;;;;14.21;100.00;148323.23;1742967;82;20178;-62
2022/05/12 03:33:46;;;;;;;;;;;;;;;14.24;100.00;151231.81;1735106;82;20179;-61
2022/05/12 03:36:15;;;;;;;;;;;;;;;14.31;100.00;151250.05;1728405;83;21068;-61
2022/05/12 03:38:43;;;;;;;;;;;;;;;14.37;100.00;151263.05;1728049;82;20523;-61
2022/05/12 03:41:10;;;;;;;;;;;;;;;14.47;100.00;151289.05;1728433;82;20230;-62
2022/05/12 03:46:23;;;;;;;;;;;;;;;14.64;100.00;151330.70;1728595;83;20160;-61
2022/05/12 03:48:51;;;;;;;;;;;;;;;14.74;100.00;151356.81;1728152;82;21259;-63
2022/05/12 03:51:17;;;;;;;;;;;;;;;14.83;100.00;151380.22;1728492;83;20994;-63
2022/05/12 03:53:46;;;;;;;;;;;;;;;14.94;100.00;151406.28;1728752;83;20471;-65
2022/05/12 03:56:12;;;;;;;;;;;;;;;15.03;100.00;151431.02;1728349;82;20187;-65
2022/05/12 03:58:40;;;;;;;;;;;;;;;15.15;100.00;151460.95;1728369;83;20408;-65
2022/05/12 04:01:06;;;;;;;;;;;;;;;15.27;100.00;151490.91;1728536;82;23012;-62
2022/05/12 04:03:34;;;;;;;;;;;;;;;15.41;100.00;151526.05;1728393;83;20164;-63
2022/05/12 04:06:01;;;;;;;;;;;;;;;15.54;100.00;151558.59;1728303;83;20230;-61
2022/05/12 04:08:29;;;;;;;;;;;;;;;15.68;100.00;151592.42;1728468;83;20203;-63
2022/05/12 04:10:56;;;;;;;;;;;;;;;15.82;100.00;151627.63;1728411;82;20737;-63
2022/05/12 04:13:22;;;;;;;;;;;;;;;15.94;100.00;151658.91;1728239;82;21113;-63
2022/05/12 04:15:50;;;;;;;;;;;;;;;16.09;100.00;151695.41;1727860;83;20519;-63
2022/05/12 04:18:17;;;;;;;;;;;;;;;16.24;100.00;151734.45;1728432;83;20207;-63
2022/05/12 04:20:46;;;;;;;;;;;;;;;16.40;100.00;151773.55;1727883;82;20174;-64
2022/05/12 04:23:13;;;;;;;;;;;;;;;16.56;100.00;151813.94;1727620;83;20206;-63
2022/05/12 04:25:40;;;;;;;;;;;;;;;16.69;100.00;151846.52;1739859;82;21222;-62
2022/05/12 04:28:07;;;;;;;;;;;;;;;16.86;100.00;151890.84;1739623;82;20194;-61
2022/05/12 04:30:36;;;;;;;;;;;;;;;17.01;100.00;151928.67;1740018;82;20211;-62
2022/05/12 04:35:48;;;;;;;;;;;;;;;17.32;100.00;152005.59;1763674;81;20454;-63
2022/05/12 04:38:15;;;;;;;;;;;;;;;17.49;100.00;152048.66;1763876;81;21119;-63
2022/05/12 04:40:42;;;;;;;;;;;;;;;17.65;100.00;152087.75;1763605;81;20139;-61
2022/05/12 04:43:08;;;;;;;;;;;;;;;17.81;100.00;152128.22;1763610;81;20782;-61
2022/05/12 04:45:35;;;;;;;;;;;;;;;17.95;100.00;152164.70;1763956;81;20410;-61
2022/05/12 04:48:03;;;;;;;;;;;;;;;18.09;98.29;152199.95;1733542;81;20506;-61
2022/05/12 04:50:32;;;;;;;;;;;;;;;18.22;96.49;152232.56;1764305;81;21142;-64
2022/05/12 04:52:59;;;;;;;;;;;;;;;18.33;94.82;152259.97;1764071;81;20157;-62
2022/05/12 04:55:26;;;;;;;;;;;;;;;18.45;93.31;152291.30;1764333;81;20154;-62
2022/05/12 04:57:55;;;;;;;;;;;;;;;18.56;91.94;152318.70;1764128;81;20245;-64
2022/05/12 05:00:25;;;;;;;;;;;;;;;18.67;90.74;152344.77;1763952;81;20229;-65
2022/05/12 05:02:52;;;;;;;;;;;;;;;18.80;90.10;152378.72;1764318;81;21087;-60
2022/05/12 05:05:19;;;;;;;;;;;;;;;18.94;89.63;152412.67;1763778;81;20325;-63
2022/05/12 05:07:46;;;;;;;;;;;;;;;19.09;89.06;152450.56;1764011;81;20443;-58
2022/05/12 05:10:13;;;;;;;;;;;;;;;19.24;88.08;152488.41;1764473;81;20502;-60
2022/05/12 05:12:41;;;;;;;;;;;;;;;19.36;86.38;152519.77;1764234;81;20154;-59
2022/05/12 05:15:09;;;;;;;;;;;;;;;19.48;85.00;152549.78;1764190;81;21279;-58
2022/05/12 05:17:35;;;;;;;;;;;;;;;19.61;83.79;152582.42;1764512;81;20082;-59
2022/05/12 05:20:07;;;;;;;;;;;;;;;19.72;82.78;152611.12;1764054;81;20411;-59
2022/05/12 05:22:34;;;;;;;;;;;;;;;19.86;82.02;152645.09;1764580;81;20473;-60
2022/05/12 05:25:01;;;;;;;;;;;;;;;20.02;80.98;152685.62;1750311;81;20138;-59
2022/05/12 05:27:29;;;;;;;;;;;;;;;20.14;79.48;152717.00;1745470;82;22503;-61
2022/05/12 05:29:56;;;;;;;;;;;;;;;20.21;78.68;152732.66;1745049;82;20134;-61
2022/05/12 05:32:23;;;;;;;;;;;;;;;20.29;78.03;152754.86;1745240;82;20151;-61
2022/05/12 05:34:50;;;;;;;;;;;;;;;20.38;77.55;152775.75;1715809;82;20198;-61
2022/05/12 05:37:21;;;;;;;;;;;;;;;20.47;77.13;152800.56;1746026;82;20230;-60
2022/05/12 05:39:48;;;;;;;;;;;;;;;20.61;76.67;152835.84;1717468;82;21234;-61
2022/05/12 05:42:15;;;;;;;;;;;;;;;20.73;76.00;152864.61;1746054;82;20210;-61
2022/05/12 05:44:42;;;;;;;;;;;;;;;20.82;75.48;152888.16;1745911;82;20147;-61
2022/05/12 05:47:13;;;;;;;;;;;;;;;20.89;75.29;152905.16;1745879;82;20471;-60
2022/05/12 05:49:41;;;;;;;;;;;;;;;20.99;75.19;152929.98;1746147;81;20123;-60
2022/05/12 05:54:54;;;;;;;;;;;;;;;21.29;75.23;153005.78;1745490;82;20492;-61
2022/05/12 05:57:26;;;;;;;;;;;;;;;21.49;74.79;153055.45;1745824;82;20153;-60
2022/05/12 05:59:55;;;;;;;;;;;;;;;21.64;74.08;153093.34;1745680;81;20153;-61
2022/05/12 06:02:22;;;;;;;;;;;;;;;21.77;73.69;153126.08;1718025;82;20155;-61
2022/05/12 06:04:49;;;;;;;;;;;;;;;21.91;73.43;153161.44;1746168;82;21706;-60
2022/05/12 06:07:16;;;;;;;;;;;;;;;22.09;72.83;153207.19;1746120;82;20185;-61
2022/05/12 06:09:43;;;;;;;;;;;;;;;22.22;72.26;153241.20;1746417;82;20184;-60
2022/05/12 06:12:10;;;;;;;;;;;;;;;22.39;71.71;153284.34;1746215;82;20201;-59
2022/05/12 06:14:38;;;;;;;;;;;;;;;22.53;70.91;153319.70;1746449;82;20360;-62
2022/05/12 06:17:05;;;;;;;;;;;;;;;22.63;70.45;153343.23;1746340;82;21113;-61
2022/05/12 06:19:32;;;;;;;;;;;;;;;22.74;69.72;153372.03;1746698;82;20198;-61
2022/05/12 06:22:00;;;;;;;;;;;;;;;22.81;69.03;153390.34;1746037;82;20195;-60
2022/05/12 06:24:27;;;;;;;;;;;;;;;22.84;68.59;153398.19;1722661;81;20244;-60
2022/05/12 06:26:54;;;;;;;;;;;;;;;22.91;68.45;153415.19;1760096;81;20134;-60
2022/05/12 06:29:23;;;;;;;;;;;;;;;22.99;68.01;153434.83;1759911;81;20463;-59
2022/05/12 06:31:49;;;;;;;;;;;;;;;23.08;67.77;153458.36;1759907;81;20468;-60
2022/05/12 06:34:16;;;;;;;;;;;;;;;23.19;67.36;153485.84;1760983;80;20133;-61
2022/05/12 06:36:45;;;;;;;;;;;;;;;23.28;66.77;153508.14;1761426;81;20237;-61
2022/05/12 06:39:12;;;;;;;;;;;;;;;23.39;66.22;153536.97;1756231;80;20174;-61
2022/05/12 06:41:39;;;;;;;;;;;;;;;23.52;65.75;153568.34;1729951;82;20806;-61
2022/05/12 06:44:06;;;;;;;;;;;;;;;23.61;64.88;153591.94;1710246;83;20207;-61
2022/05/12 06:46:32;;;;;;;;;;;;;;;23.67;64.52;153606.34;1710766;83;20138;-60
2022/05/12 06:49:02;;;;;;;;;;;;;;;23.78;63.90;153633.83;1710091;83;20208;-60
2022/05/12 06:51:29;;;;;;;;;;;;;;;23.81;63.23;153641.69;1710483;83;20236;-62
2022/05/12 06:53:56;;;;;;;;;;;;;;;23.83;62.86;153646.91;1710556;82;21268;-62
2022/05/12 06:56:23;;;;;;;;;;;;;;;23.84;62.34;153650.81;1710518;83;20274;-61
2022/05/12 06:58:50;;;;;;;;;;;;;;;23.83;61.97;153646.91;1710316;83;20192;-60
2022/05/12 07:01:17;;;;;;;;;;;;;;;23.81;61.90;153641.69;1711575;83;20203;-61
2022/05/12 07:03:44;;;;;;;;;;;;;;;23.82;61.73;153645.58;1733758;81;20168;-59
2022/05/12 07:06:11;;;;;;;;;;;;;;;23.83;61.47;153648.19;1762305;80;21988;-60
2022/05/12 07:08:42;;;;;;;;;;;;;;;23.82;61.48;153644.30;1756206;81;20342;-59
2022/05/12 07:11:09;;;;;;;;;;;;;;;23.84;61.33;153649.53;1756305;81;20177;-60
2022/05/12 07:13:37;;;;;;;;;;;;;;;23.84;61.12;153650.81;1756670;81;20122;-59
2022/05/12 07:16:04;;;;;;;;;;;;;;;23.86;60.94;153656.03;1757146;80;20175;-60
2022/05/12 07:18:32;;;;;;;;;;;;;;;23.85;61.02;153653.42;1757170;80;21200;-60
2022/05/12 07:26:36;;;;;;;;;;;;;;;23.80;60.84;153639.06;1756403;81;20175;-61
2022/05/12 07:29:03;;;;;;;;;;;;;;;23.77;60.66;153632.50;1756126;80;20215;-60
2022/05/12 07:31:31;;;;;;;;;;;;;;;23.79;60.61;153636.45;1756170;80;21090;-60
2022/05/12 07:33:58;;;;;;;;;;;;;;;23.79;60.07;153636.45;1763120;80;20494;-60
2022/05/12 07:36:27;;;;;;;;;;;;;;;23.74;59.84;153625.94;1756453;81;20194;-59
2022/05/12 07:39:00;;;;;;;;;;;;;;;23.69;59.77;153612.86;1756605;81;20457;-60
2022/05/12 07:41:24;;;;;;;;;;;;;;;23.67;59.67;153607.62;1756066;80;20548;-61
2022/05/12 07:43:54;;;;;;;;;;;;;;;23.62;59.24;153594.55;1765159;80;21396;-59
2022/05/12 07:46:22;;;;;;;;;;;;;;;23.55;59.06;153576.23;1724762;81;20203;-60
2022/05/12 07:48:49;;;;;;;;;;;;;;;23.53;58.77;153570.95;1743209;82;20205;-59
2022/05/12 07:51:17;;;;;;;;;;;;;;;23.46;58.52;153555.27;1761501;81;20493;-61
2022/05/12 07:53:49;;;;;;;;;;;;;;;23.43;58.33;153547.42;1761254;81;20151;-59
2022/05/12 07:56:16;;;;;;;;;;;;;;;23.44;58.05;153548.75;1770863;80;20852;-59
2022/05/12 07:58:43;;;;;;;;;;;;;;;23.42;57.83;153544.81;1756750;80;20162;-60
2022/05/12 08:01:11;;;;;;;;;;;;;;;23.46;57.25;153555.27;1761303;80;20665;-58
2022/05/12 08:03:39;;;;;;;;;;;;;;;23.53;56.90;153572.28;1746241;80;20154;-58
2022/05/12 08:06:07;;;;;;;;;;;;;;;23.57;56.43;153581.47;1761553;80;20197;-59
2022/05/12 08:08:35;;;;;;;;;;;;;;;23.61;56.05;153593.22;1739143;80;22164;-58
2022/05/12 08:11:03;;;;;;;;;;;;;;;23.69;54.96;153612.86;1760278;80;20213;-58
2022/05/12 08:13:31;;;;;;;;;;;;;;;23.74;54.16;153625.94;1762385;80;20169;-58
2022/05/12 08:15:58;;;;;;;;;;;;;;;23.81;52.88;153642.97;1755871;81;20245;-61
2022/05/12 08:18:25;;;;;;;;;;;;;;;23.86;52.40;153654.75;1740218;82;20217;-59
2022/05/12 08:20:52;;;;;;;;;;;;;;;23.90;51.78;153665.22;1771393;80;21908;-61
2022/05/12 08:23:20;;;;;;;;;;;;;;;23.94;50.14;153675.69;1712046;82;38027;-61
2022/05/12 08:25:47;;;;;;;;;;;;;;;23.96;49.46;153680.92;1676190;83;20149;-62
2022/05/12 08:28:16;;;;;;;;;;;;;;;23.99;49.34;153687.48;1684846;85;20469;-60
2022/05/12 08:30:45;;;;;;;;;;;;;;;24.02;48.77;153696.72;1685098;85;20156;-61
2022/05/12 08:33:12;;;;;;;;;;;;;;;24.06;48.59;153705.84;1688220;84;21143;-59
2022/05/12 08:35:42;;;;;;;;;;;;;;;24.08;48.01;153709.80;1695525;84;20099;-59
2022/05/12 08:38:09;;;;;;;;;;;;;;;24.08;47.18;153709.80;1706995;82;20425;-58
2022/05/12 08:40:42;;;;;;;;;;;;;;;24.05;47.08;153701.95;1713755;82;20584;-58
2022/05/12 08:43:13;;;;;;;;;;;;;;;24.06;47.06;153704.56;1695926;83;20176;-59
2022/05/12 08:45:40;;;;;;;;;;;;;;;24.07;46.49;153707.19;1714066;83;21239;-58
2022/05/12 08:48:07;;;;;;;;;;;;;;;24.09;46.38;153712.41;1709971;83;20235;-59
2022/05/12 08:50:34;;;;;;;;;;;;;;;24.09;46.36;153712.41;1712454;83;20390;-59
2022/05/12 08:53:03;;;;;;;;;;;;;;;24.03;46.31;153699.33;1714192;83;20184;-59
2022/05/12 08:55:37;;;;;;;;;;;;;;;23.96;46.25;153679.64;1713863;82;20485;-58
2022/05/12 08:58:09;;;;;;;;;;;;;;;23.90;46.20;153665.22;1714293;83;22585;-58
2022/05/12 09:01:02;;;;;;;;;;;;;;;23.87;46.55;153657.38;1713415;83;20200;-61
2022/05/12 09:04:02;;;;;;;;;;;;;;;23.84;46.68;153649.53;1713865;82;20226;-59
2022/05/12 09:06:48;;;;;;;;;;;;;;;23.82;46.82;153645.58;1706809;82;20200;-61
2022/05/12 09:09:18;;;;;;;;;;;;;;;23.79;46.84;153636.45;1695273;83;20162;-60
2022/05/12 09:12:17;;;;;;;;;;;;;;;23.77;46.55;153631.22;1714679;83;21950;-59
2022/05/12 09:14:56;;;;;;;;;;;;;;;23.76;46.72;153629.87;1705695;82;20395;-59
2022/05/12 09:17:25;;;;;;;;;;;;;;;23.73;46.51;153622.03;1716729;83;20224;-59
2022/05/12 09:19:51;;;;;;;;;;;;;;;23.70;46.70;153615.47;1713532;82;20192;-59
2022/05/12 09:22:26;;;;;;;;;;;;;;;23.66;46.46;153605.02;1711688;82;20193;-60
2022/05/12 09:24:53;;;;;;;;;;;;;;;23.63;46.34;153595.83;1719117;80;21258;-59
2022/05/12 09:27:32;;;;;;;;;;;;;;;23.60;45.86;153590.59;1761680;80;20504;-60
2022/05/12 09:29:59;;;;;;;;;;;;;;;23.59;46.00;153587.98;1767867;80;20258;-60
2022/05/12 09:32:30;;;;;;;;;;;;;;;23.62;45.68;153594.55;1773382;80;20143;-61
2022/05/12 09:35:21;;;;;;;;;;;;;;;23.62;45.95;153594.55;1747104;80;20162;-60
2022/05/12 09:37:49;;;;;;;;;;;;;;;23.59;45.91;153587.98;1779788;80;21240;-61
2022/05/12 09:40:34;;;;;;;;;;;;;;;23.59;46.02;153586.70;1778049;80;20203;-60
2022/05/12 09:43:18;;;;;;;;;;;;;;;23.55;46.09;153577.52;1752545;80;20176;-60
2022/05/12 09:46:04;;;;;;;;;;;;;;;23.53;46.88;153570.95;1734270;82;20212;-60
2022/05/12 09:48:36;;;;;;;;;;;;;;;23.53;47.20;153570.95;1777511;80;20152;-60
2022/05/12 09:51:33;;;;;;;;;;;;;;;23.50;46.75;153564.44;1706686;81;21105;-60
2022/05/12 09:54:15;;;;;;;;;;;;;;;23.44;47.11;153550.03;1716978;81;20217;-62
2022/05/12 09:56:47;;;;;;;;;;;;;;;23.37;47.58;153531.73;1745682;80;20130;-61
2022/05/12 09:59:17;;;;;;;;;;;;;;;23.33;47.97;153521.27;1746340;80;20196;-60
2022/05/12 10:01:59;;;;;;;;;;;;;;;23.33;48.04;153521.27;1745074;82;20127;-61
2022/05/12 10:10:12;;;;;;;;;;;;;;;23.18;50.04;153484.56;1755318;80;20470;-62
2022/05/12 10:12:48;;;;;;;;;;;;;;;23.09;50.25;153459.69;1757298;81;20391;-61
2022/05/12 10:15:31;;;;;;;;;;;;;;;23.01;50.05;153441.39;1743726;81;20178;-61
2022/05/12 10:18:10;;;;;;;;;;;;;;;22.97;49.73;153429.59;1742957;80;22669;-60
2022/05/12 10:20:39;;;;;;;;;;;;;;;22.94;49.73;153421.77;1754436;81;20160;-61
2022/05/12 10:23:26;;;;;;;;;;;;;;;22.92;49.56;153416.53;1758725;80;20117;-61
2022/05/12 10:26:06;;;;;;;;;;;;;;;22.88;49.73;153408.69;1735442;82;20264;-59
2022/05/12 10:29:08;;;;;;;;;;;;;;;22.88;49.03;153407.36;1692313;82;20284;-61
2022/05/12 10:31:54;;;;;;;;;;;;;;;22.82;48.73;153392.95;1704635;82;20133;-60
2022/05/12 10:34:48;;;;;;;;;;;;;;;22.75;48.61;153375.94;1686940;82;20158;-61
2022/05/12 10:37:38;;;;;;;;;;;;;;;22.68;48.05;153356.34;1687189;83;20224;-60
2022/05/12 10:40:17;;;;;;;;;;;;;;;22.61;47.94;153340.63;1708089;83;20221;-59
2022/05/12 10:42:54;;;;;;;;;;;;;;;22.57;48.32;153330.16;1708760;83;20146;-60
2022/05/12 10:45:39;;;;;;;;;;;;;;;22.51;47.94;153314.48;1708611;84;21185;-60
2022/05/12 10:48:38;;;;;;;;;;;;;;;22.49;48.23;153309.25;1692419;84;20225;-60
2022/05/12 10:51:20;;;;;;;;;;;;;;;22.48;47.29;153306.64;1708182;84;20205;-60
2022/05/12 10:53:59;;;;;;;;;;;;;;;22.46;46.95;153301.36;1709248;83;20109;-59
2022/05/12 10:56:39;;;;;;;;;;;;;;;22.47;46.00;153304.03;1699467;83;20193;-61
2022/05/12 10:59:45;;;;;;;;;;;;;;;22.45;45.77;153300.03;1708407;83;20842;-60
2022/05/12 11:02:23;;;;;;;;;;;;;;;22.45;45.54;153300.03;1682781;85;20446;-61
2022/05/12 11:04:52;;;;;;;;;;;;;;;22.45;45.41;153298.75;1689066;83;20216;-61
2022/05/12 11:07:35;;;;;;;;;;;;;;;22.44;45.28;153297.42;1709102;83;20343;-60
2022/05/12 11:10:05;;;;;;;;;;;;;;;22.46;45.28;153302.69;1709423;82;20177;-61
2022/05/12 11:12:46;;;;;;;;;;;;;;;22.43;44.92;153294.80;1714925;83;21244;-60
2022/05/12 11:15:16;;;;;;;;;;;;;;;22.44;45.17;153296.14;1711639;83;20626;-60
2022/05/12 11:18:00;;;;;;;;;;;;;;;22.45;45.35;153300.03;1710647;82;20149;-61
2022/05/12 11:20:30;;;;;;;;;;;;;;;22.43;45.80;153294.80;1716416;82;20484;-61
2022/05/12 11:23:01;;;;;;;;;;;;;;;22.42;46.36;153292.19;1711597;83;20133;-61
2022/05/12 11:25:34;;;;;;;;;;;;;;;22.38;46.58;153280.41;1675392;82;22221;-61
2022/05/12 11:31:24;;;;;;;;;;;;;;;22.28;47.12;153256.87;1723005;81;20214;-61
2022/05/12 11:33:53;;;;;;;;;;;;;;;22.24;48.05;153245.09;1728742;82;20632;-61
2022/05/12 11:36:21;;;;;;;;;;;;;;;22.19;48.12;153233.31;1720154;81;20226;-61
2022/05/12 11:38:51;;;;;;;;;;;;;;;22.15;48.24;153222.86;1708232;82;21061;-60
2022/05/12 11:41:27;;;;;;;;;;;;;;;22.12;48.05;153215.02;1732010;82;20195;-59
2022/05/12 11:44:27;;;;;;;;;;;;;;;22.09;48.34;153207.19;1727476;81;20206;-59
2022/05/12 11:47:08;;;;;;;;;;;;;;;22.02;48.21;153191.50;1729865;82;20211;-60
2022/05/12 11:49:57;;;;;;;;;;;;;;;21.94;47.17;153170.55;1734571;82;20139;-60
2022/05/12 11:52:43;;;;;;;;;;;;;;;21.87;47.01;153153.53;1733784;81;22553;-61
2022/05/12 11:55:31;;;;;;;;;;;;;;;21.84;46.37;153144.42;1705280;83;20136;-60
2022/05/12 11:58:07;;;;;;;;;;;;;;;21.83;46.54;153141.81;1683516;84;20766;-61
2022/05/12 12:00:40;;;;;;;;;;;;;;;21.82;46.13;153139.19;1726138;82;20716;-62
2022/05/12 12:03:22;;;;;;;;;;;;;;;21.80;45.91;153133.97;1733501;82;20191;-59
2022/05/12 12:05:53;;;;;;;;;;;;;;;21.77;46.58;153127.41;1734572;82;21267;-60
2022/05/12 12:08:38;;;;;;;;;;;;;;;21.71;46.85;153113.02;1734510;82;20214;-59
2022/05/12 12:11:22;;;;;;;;;;;;;;;21.64;47.00;153094.69;1734061;82;20234;-61
2022/05/12 12:13:59;;;;;;;;;;;;;;;21.57;48.51;153076.39;1734412;82;20182;-61
2022/05/12 12:16:29;;;;;;;;;;;;;;;21.50;49.70;153058.06;1733962;81;20229;-60
2022/05/12 12:18:59;;;;;;;;;;;;;;;21.42;50.44;153038.44;1715598;82;21189;-60
2022/05/12 12:21:41;;;;;;;;;;;;;;;21.35;50.87;153020.16;1732924;81;20431;-62
2022/05/12 12:24:27;;;;;;;;;;;;;;;21.31;50.43;153011.00;1731391;81;20203;-62
2022/05/12 12:26:55;;;;;;;;;;;;;;;21.27;50.70;153001.88;1730802;81;20130;-61
2022/05/12 12:29:47;;;;;;;;;;;;;;;21.27;51.82;153000.55;1758004;80;20225;-63
2022/05/12 12:32:33;;;;;;;;;;;;;;;21.23;52.54;152990.09;1731206;82;21280;-60
2022/05/12 12:35:24;;;;;;;;;;;;;;;21.16;51.73;152974.42;1732277;81;20205;-62
2022/05/12 12:37:50;;;;;;;;;;;;;;;21.11;51.26;152960.05;1728555;83;20165;-60
2022/05/12 12:40:33;;;;;;;;;;;;;;;21.04;51.77;152943.05;1758759;81;20229;-61
2022/05/12 12:43:01;;;;;;;;;;;;;;;20.97;51.24;152924.75;1757727;80;20510;-63
2022/05/12 12:45:28;;;;;;;;;;;;;;;20.91;51.29;152909.09;1739171;82;21238;-62
2022/05/12 12:48:04;;;;;;;;;;;;;;;20.88;51.63;152902.53;1756365;80;20213;-62
2022/05/12 12:50:46;;;;;;;;;;;;;;;20.92;51.52;152911.70;1757465;80;20145;-61
2022/05/12 12:53:16;;;;;;;;;;;;;;;20.89;50.95;152905.16;1720193;82;20788;-61
2022/05/12 12:58:43;;;;;;;;;;;;;;;20.82;50.02;152888.16;1743864;81;21404;-63
2022/05/12 13:01:14;;;;;;;;;;;;;;;20.81;49.51;152884.27;1713893;82;20933;-65
2022/05/12 13:03:47;;;;;;;;;;;;;;;20.79;49.34;152880.28;1734746;81;20441;-62
2022/05/12 13:06:17;;;;;;;;;;;;;;;20.78;49.30;152877.66;1764135;79;20195;-61
2022/05/12 13:08:48;;;;;;;;;;;;;;;20.76;48.76;152872.44;1759426;80;20527;-67
2022/05/12 13:11:20;;;;;;;;;;;;;;;20.73;47.78;152864.61;1761363;80;21235;-60
2022/05/12 13:13:52;;;;;;;;;;;;;;;20.74;47.83;152867.22;1785737;80;20385;-60
2022/05/12 13:16:21;;;;;;;;;;;;;;;20.75;48.51;152869.83;1790391;80;20152;-62
2022/05/12 13:18:50;;;;;;;;;;;;;;;20.73;48.37;152864.61;1735391;80;20729;-61